Time;durP1;ratioP1;P1;durP2;ratioP2;P2;SDS_P1;SDS_P2;PMS_P1;PMS_P2;Temp;Humidity;BMP_temperature;BMP_pressure;BME280_temperature;BME280_humidity;BME280_pressure;Samples;Min_cycle;Max_cycle;Signal;HPM_P1;HPM_P2
2022/03/05 00:00:31;;;;;;;27.83;11.25;;;;;;;3.12;63.48;101915.69;5062266;28;20056;-84
2022/03/05 00:03:00;;;;;;;27.13;11.75;;;;;;;3.16;63.45;101917.47;5063188;28;20031;-83
2022/03/05 00:05:26;;;;;;;28.88;12.15;;;;;;;3.07;63.42;101912.16;5062727;28;20103;-84
2022/03/05 00:07:52;;;;;;;30.25;12.40;;;;;;;3.05;63.58;101920.00;5062055;28;20882;-84
2022/03/05 00:10:19;;;;;;;28.42;11.90;;;;;;;2.99;63.92;101906.91;5063046;28;20031;-84
2022/03/05 00:12:45;;;;;;;31.27;12.10;;;;;;;2.97;63.72;101912.94;5063443;28;20608;-84
2022/03/05 00:15:10;;;;;;;27.58;11.95;;;;;;;2.92;63.86;101912.91;5064107;28;20506;-84
2022/03/05 00:17:35;;;;;;;32.97;13.00;;;;;;;2.87;64.39;101906.78;5062187;28;20036;-84
2022/03/05 00:20:01;;;;;;;30.67;12.40;;;;;;;2.88;64.80;101913.75;5063892;28;20032;-83
2022/03/05 00:22:26;;;;;;;32.25;12.93;;;;;;;2.82;64.28;101913.69;5062646;28;20028;-83
2022/03/05 00:24:52;;;;;;;31.58;13.82;;;;;;;2.84;65.36;101919.78;5062369;28;20036;-83
2022/03/05 00:27:17;;;;;;;31.02;13.70;;;;;;;2.77;65.39;101911.03;5063461;28;20041;-83
2022/03/05 00:29:44;;;;;;;32.65;12.93;;;;;;;2.75;64.60;101917.09;5063316;28;20102;-83
2022/03/05 00:32:09;;;;;;;30.08;12.70;;;;;;;2.76;65.39;101926.72;5060615;28;20047;-84
2022/03/05 00:34:34;;;;;;;34.17;13.38;;;;;;;2.66;65.22;101920.53;5061266;28;20025;-84
2022/03/05 00:37:00;;;;;;;26.65;12.07;;;;;;;2.64;64.95;101922.22;5062058;28;20143;-84
2022/03/05 00:39:25;;;;;;;38.85;14.25;;;;;;;2.63;65.66;101922.22;5060225;28;20479;-84
2022/03/05 00:41:50;;;;;;;32.25;13.05;;;;;;;2.58;64.99;101918.69;5060640;28;20029;-83
2022/03/05 00:44:15;;;;;;;29.50;12.55;;;;;;;2.44;64.91;101916.81;5061881;28;20024;-83
2022/03/05 00:46:41;;;;;;;28.67;13.23;;;;;;;2.44;65.65;101927.25;5062448;28;20028;-84
2022/03/05 00:49:06;;;;;;;34.10;14.25;;;;;;;2.37;64.73;101920.22;5061040;28;20051;-84
2022/03/05 00:51:32;;;;;;;32.40;12.93;;;;;;;2.33;65.55;101915.81;5060438;28;20097;-83
2022/03/05 00:53:57;;;;;;;31.75;14.40;;;;;;;2.29;65.00;101917.53;5059930;28;20111;-83
2022/03/05 00:56:23;;;;;;;35.95;14.50;;;;;;;2.17;65.77;101909.56;5064624;28;20040;-83
2022/03/05 00:58:48;;;;;;;32.97;14.05;;;;;;;2.28;66.67;101917.50;5060139;28;20020;-83
2022/03/05 01:01:13;;;;;;;35.75;14.15;;;;;;;2.25;65.93;101923.56;5059672;28;20089;-83
2022/03/05 01:03:39;;;;;;;36.88;15.27;;;;;;;2.18;66.07;101913.91;5063244;28;20454;-83
2022/03/05 01:06:05;;;;;;;36.83;14.77;;;;;;;2.14;65.94;101906.03;5060628;28;20035;-83
2022/03/05 01:08:31;;;;;;;34.33;13.02;;;;;;;2.13;65.47;101915.59;5061757;28;20020;-83
2022/03/05 01:10:56;;;;;;;32.60;13.95;;;;;;;2.09;65.81;101905.97;5060862;28;20036;-83
2022/03/05 01:13:21;;;;;;;34.63;14.30;;;;;;;2.05;65.66;101901.56;5062092;28;20103;-83
2022/03/05 01:15:47;;;;;;;32.85;14.60;;;;;;;2.07;66.61;101904.22;5060010;28;20031;-83
2022/03/05 01:18:12;;;;;;;36.13;14.35;;;;;;;2.08;65.92;101906.84;5059623;28;20028;-83
2022/03/05 01:20:38;;;;;;;35.30;14.70;;;;;;;2.02;67.31;101905.03;5061812;28;20029;-83
2022/03/05 01:23:03;;;;;;;34.13;14.88;;;;;;;2.01;66.60;101910.25;5062271;28;20025;-83
2022/03/05 01:25:28;;;;;;;30.92;14.40;;;;;;;2.02;68.35;101912.88;5024032;28;1059980;-83
2022/03/05 01:27:53;;;;;;;36.90;14.80;;;;;;;1.95;66.44;101905.81;5063566;28;20442;-83
2022/03/05 01:30:19;;;;;;;35.05;15.00;;;;;;;1.95;66.61;101911.03;5061276;28;20044;-83
2022/03/05 01:32:44;;;;;;;33.58;13.60;;;;;;;1.90;66.76;101902.28;5062463;28;20070;-83
2022/03/05 01:35:09;;;;;;;37.55;15.43;;;;;;;1.90;66.28;101912.69;5063968;28;20024;-83
2022/03/05 01:37:35;;;;;;;36.53;14.63;;;;;;;1.86;67.47;101910.91;5060951;28;20392;-83
2022/03/05 01:40:01;;;;;;;35.92;15.65;;;;;;;1.88;66.82;101916.16;5062975;28;20111;-83
2022/03/05 01:42:26;;;;;;;37.13;14.20;;;;;;;1.79;66.19;101909.97;5062711;28;20029;-83
2022/03/05 01:44:52;;;;;;;35.53;14.77;;;;;;;1.75;66.95;101908.16;5062038;28;20111;-83
2022/03/05 01:47:17;;;;;;;32.67;15.27;;;;;;;1.75;67.29;101899.47;5060935;28;20028;-83
2022/03/05 01:49:43;;;;;;;37.90;14.48;;;;;;;1.66;66.86;101905.44;5061725;28;20031;-84
2022/03/05 01:52:09;;;;;;;39.00;15.43;;;;;;;1.65;68.21;101901.09;5059807;28;20039;-83
2022/03/05 01:54:34;;;;;;;36.45;14.60;;;;;;;1.61;67.71;101898.41;5060625;28;20040;-83
2022/03/05 01:57:00;;;;;;;41.45;15.75;;;;;;;1.60;69.09;101907.09;5059991;28;20028;-83
2022/03/05 01:59:25;;;;;;;36.92;15.32;;;;;;;1.57;67.10;101901.84;5061954;28;20044;-83
2022/03/05 02:01:51;;;;;;;39.17;15.32;;;;;;;1.57;69.14;101902.69;5057945;28;20042;-83
2022/03/05 02:04:17;;;;;;;41.10;15.07;;;;;;;1.46;67.91;101897.34;5059835;28;20498;-83
2022/03/05 02:06:42;;;;;;;34.17;15.05;;;;;;;1.39;68.28;101897.22;5060677;28;20028;-83
2022/03/05 02:09:07;;;;;;;35.17;14.32;;;;;;;1.44;68.30;101906.84;5061795;28;20500;-83
2022/03/05 02:11:33;;;;;;;35.83;14.73;;;;;;;1.42;68.13;101903.38;5061033;28;20605;-83
2022/03/05 02:13:58;;;;;;;35.70;15.13;;;;;;;1.36;67.31;101900.69;5062376;28;20473;-83
2022/03/05 02:16:24;;;;;;;39.60;14.25;;;;;;;1.31;68.08;101902.34;5059641;28;20156;-83
2022/03/05 02:18:55;;;;;;;41.55;14.50;;;;;;;1.36;68.29;101915.44;5059917;28;20449;-83
2022/03/05 02:21:22;;;;;;;35.33;14.70;;;;;;;1.32;68.77;101914.50;5062429;28;20379;-83
2022/03/05 02:23:48;;;;;;;38.40;14.70;;;;;;;1.27;68.14;101905.75;5063816;28;20417;-83
2022/03/05 02:26:13;;;;;;;32.20;13.88;;;;;;;1.26;69.06;101912.69;5060180;28;20125;-83
2022/03/05 02:28:38;;;;;;;34.97;13.82;;;;;;;1.20;70.77;101906.50;5063490;28;20819;-83
2022/03/05 02:31:04;;;;;;;35.22;14.93;;;;;;;1.10;69.61;101897.69;5061835;28;20515;-83
2022/03/05 02:33:30;;;;;;;41.75;15.82;;;;;;;1.12;71.03;101903.81;5060165;28;20044;-83
2022/03/05 02:35:55;;;;;;;39.70;15.82;;;;;;;1.13;69.64;101907.28;5061166;28;20020;-83
2022/03/05 02:38:22;;;;;;;38.90;16.35;;;;;;;1.01;68.92;101892.31;5058947;28;20067;-83
2022/03/05 02:40:49;;;;;;;36.97;15.82;;;;;;;0.99;69.09;101887.09;5060032;28;20514;-83
2022/03/05 02:43:15;;;;;;;37.97;14.68;;;;;;;1.03;69.07;101893.25;5061242;28;20430;-83
2022/03/05 02:45:41;;;;;;;38.60;16.35;;;;;;;1.07;68.99;101901.94;5061049;28;20032;-83
2022/03/05 02:48:09;;;;;;;35.25;14.75;;;;;;;1.06;68.38;101893.25;5058421;28;20392;-83
2022/03/05 02:50:35;;;;;;;36.30;14.57;;;;;;;1.04;69.07;101884.56;5060645;28;20032;-83
2022/03/05 02:53:01;;;;;;;36.38;14.63;;;;;;;1.01;68.65;101889.72;5060788;28;20056;-83
2022/03/05 02:55:26;;;;;;;42.28;15.30;;;;;;;0.86;68.18;101877.34;5061443;28;20059;-83
2022/03/05 02:57:52;;;;;;;37.10;14.80;;;;;;;0.75;68.61;101873.69;5059203;28;20066;-83
2022/03/05 03:00:17;;;;;;;36.08;14.70;;;;;;;0.74;68.11;101877.13;5061571;28;20507;-83
2022/03/05 03:02:45;;;;;;;39.15;14.85;;;;;;;0.66;69.61;101878.75;5060596;28;20484;-83
2022/03/05 03:05:11;;;;;;;38.78;15.68;;;;;;;0.64;69.42;101867.41;5060264;28;20559;-83
2022/03/05 03:07:36;;;;;;;45.30;15.38;;;;;;;0.60;69.67;101878.63;5059731;28;20324;-83
2022/03/05 03:10:04;;;;;;;38.10;15.73;;;;;;;0.67;70.20;101880.50;5059978;28;20681;-82
2022/03/05 03:12:29;;;;;;;47.97;16.15;;;;;;;0.65;70.02;101875.28;5058548;28;20032;-83
2022/03/05 03:14:54;;;;;;;39.78;15.85;;;;;;;0.65;69.72;101876.97;5061420;28;20202;-83
2022/03/05 03:17:19;;;;;;;42.67;15.82;;;;;;;0.63;71.50;101871.75;5059827;28;20035;-83
2022/03/05 03:19:45;;;;;;;42.63;17.45;;;;;;;0.62;70.23;101870.00;5061246;28;20032;-82
2022/03/05 03:22:10;;;;;;;38.60;15.07;;;;;;;0.65;69.70;101879.56;5058222;28;21584;-83
2022/03/05 03:24:35;;;;;;;38.55;15.60;;;;;;;0.63;69.26;101889.09;5060591;28;20323;-83
2022/03/05 03:27:01;;;;;;;43.45;16.30;;;;;;;0.62;70.13;101882.13;5061813;28;20512;-83
2022/03/05 03:29:26;;;;;;;39.70;15.13;;;;;;;0.59;70.05;101885.53;5060507;28;20535;-83
2022/03/05 03:31:51;;;;;;;43.08;16.10;;;;;;;0.62;72.36;101882.13;5058772;28;20498;-83
2022/03/05 03:34:17;;;;;;;46.63;16.73;;;;;;;0.57;71.73;101879.47;5061314;28;20029;-83
2022/03/05 03:36:42;;;;;;;47.60;16.95;;;;;;;0.52;73.23;101877.63;5061651;28;20068;-83
2022/03/05 03:39:07;;;;;;;45.17;16.40;;;;;;;0.41;73.17;101878.28;5058868;28;20448;-83
2022/03/05 03:41:33;;;;;;;42.78;16.02;;;;;;;0.39;73.20;101885.19;5060708;28;20073;-83
2022/03/05 03:43:58;;;;;;;45.08;16.05;;;;;;;0.32;72.85;101878.13;5063348;28;20032;-83
2022/03/05 03:46:24;;;;;;;41.67;16.30;;;;;;;0.23;71.92;101876.25;5058221;28;20035;-82
2022/03/05 03:48:49;;;;;;;34.65;14.35;;;;;;;0.29;71.04;101877.22;5059243;28;20020;-83
2022/03/05 03:51:14;;;;;;;42.15;15.65;;;;;;;0.27;71.69;101876.28;5060160;28;20067;-83
2022/03/05 03:53:40;;;;;;;41.40;16.27;;;;;;;0.36;71.35;101882.53;5060560;28;20043;-83
2022/03/05 03:56:05;;;;;;;37.95;15.20;;;;;;;0.34;71.57;101880.78;5061003;28;20029;-83
2022/03/05 03:58:30;;;;;;;41.55;17.15;;;;;;;0.33;71.86;101882.50;5059491;28;20537;-83
2022/03/05 04:00:56;;;;;;;40.72;15.95;;;;;;;0.29;72.22;101885.88;5061680;28;20484;-83
2022/03/05 04:03:21;;;;;;;39.90;15.50;;;;;;;0.24;71.85;101893.59;5059933;28;20255;-82
2022/03/05 04:05:46;;;;;;;45.00;15.95;;;;;;;0.19;71.94;101883.97;5058340;28;20060;-83
2022/03/05 04:10:55;;;;;;;42.17;16.48;;;;;;;0.27;72.21;101890.16;5061265;28;20140;-83
2022/03/05 04:13:21;;;;;;;47.45;17.77;;;;;;;0.35;72.74;101887.72;5060057;28;20107;-83
2022/03/05 04:15:46;;;;;;;39.05;14.98;;;;;;;0.35;72.22;101892.91;5059969;28;20425;-83
2022/03/05 04:18:12;;;;;;;37.65;15.90;;;;;;;0.29;71.58;101885.00;5060364;28;20024;-83
2022/03/05 04:20:37;;;;;;;37.95;15.40;;;;;;;0.21;71.61;101882.25;5063887;28;20544;-83
2022/03/05 04:23:03;;;;;;;46.72;17.13;;;;;;;0.19;71.36;101887.44;5064015;28;20032;-83
2022/03/05 04:25:28;;;;;;;42.85;15.40;;;;;;;0.15;70.87;101887.34;5063124;28;20048;-83
2022/03/05 04:27:54;;;;;;;40.38;15.60;;;;;;;0.11;70.80;101888.13;5065076;28;20511;-83
2022/03/05 04:30:19;;;;;;;40.65;15.75;;;;;;;0.05;71.16;101882.78;5064968;28;20047;-83
2022/03/05 04:32:45;;;;;;;38.83;15.77;;;;;;;-0.01;70.90;101881.81;5061011;28;20025;-83
2022/03/05 04:35:11;;;;;;;38.88;15.82;;;;;;;0.04;72.20;101900.13;5062138;28;20486;-83
2022/03/05 04:37:37;;;;;;;43.13;15.57;;;;;;;-0.04;71.74;101889.59;5062402;28;20097;-82
2022/03/05 04:40:04;;;;;;;41.78;15.98;;;;;;;-0.08;71.13;101895.56;5063446;28;20063;-82
2022/03/05 04:42:29;;;;;;;35.53;14.27;;;;;;;-0.14;70.93;101891.94;5064058;28;20058;-83
2022/03/05 04:44:54;;;;;;;34.47;14.95;;;;;;;-0.13;71.76;101902.41;5061707;28;20676;-83
2022/03/05 04:47:20;;;;;;;40.00;16.52;;;;;;;-0.11;73.53;101905.88;5063659;28;20080;-83
2022/03/05 04:49:45;;;;;;;40.33;16.00;;;;;;;-0.15;72.74;101900.59;5064708;28;20025;-83
2022/03/05 04:52:11;;;;;;;45.15;16.80;;;;;;;-0.12;72.45;101895.47;5062905;28;20102;-83
2022/03/05 04:54:36;;;;;;;41.33;16.90;;;;;;;-0.10;72.18;101905.03;5060616;28;20020;-83
2022/03/05 04:57:03;;;;;;;46.83;17.02;;;;;;;-0.09;72.13;101900.75;5060734;28;20051;-83
2022/03/05 04:59:28;;;;;;;42.75;16.65;;;;;;;-0.09;71.97;101901.63;5061574;28;20567;-83
2022/03/05 05:01:56;;;;;;;46.35;17.08;;;;;;;-0.12;72.77;101904.13;5063209;28;20116;-83
2022/03/05 05:04:21;;;;;;;43.20;16.42;;;;;;;-0.13;72.36;101905.00;5063410;28;20063;-83
2022/03/05 05:06:47;;;;;;;40.40;15.55;;;;;;;-0.17;72.51;101903.16;5063174;28;20037;-83
2022/03/05 05:09:12;;;;;;;42.97;16.80;;;;;;;-0.22;72.09;101907.41;5061406;28;20032;-83
2022/03/05 05:11:38;;;;;;;40.90;15.98;;;;;;;-0.24;72.72;101901.28;5061676;28;20417;-83
2022/03/05 05:14:03;;;;;;;47.83;17.77;;;;;;;-0.22;73.07;101899.59;5063925;28;20036;-83
2022/03/05 05:16:29;;;;;;;42.08;15.27;;;;;;;-0.19;72.88;101904.84;5065188;28;20024;-83
2022/03/05 05:21:38;;;;;;;39.72;16.08;;;;;;;-0.20;73.22;101910.91;5064169;28;20065;-83
2022/03/05 05:24:04;;;;;;;40.80;17.67;;;;;;;-0.20;73.05;101917.81;5061912;28;20020;-83
2022/03/05 05:26:29;;;;;;;40.53;16.23;;;;;;;-0.15;73.40;101919.66;5063898;28;20071;-83
2022/03/05 05:28:55;;;;;;;42.67;16.88;;;;;;;-0.17;72.87;101920.50;5060930;28;20116;-83
2022/03/05 05:31:20;;;;;;;45.92;16.80;;;;;;;-0.19;72.78;101920.44;5063725;28;20103;-83
2022/03/05 05:33:45;;;;;;;52.15;16.48;;;;;;;-0.24;73.57;101918.59;5062111;28;20036;-83
2022/03/05 05:36:12;;;;;;;44.60;18.25;;;;;;;-0.22;73.87;101925.59;5062941;28;20158;-83
2022/03/05 05:38:37;;;;;;;51.35;19.25;;;;;;;-0.27;74.09;101922.88;5061054;28;20370;-83
2022/03/05 05:41:02;;;;;;;41.13;16.15;;;;;;;-0.27;73.35;101930.69;5062383;28;20035;-83
2022/03/05 05:43:28;;;;;;;43.33;17.92;;;;;;;-0.28;74.16;101935.81;5063670;28;20031;-83
2022/03/05 05:45:53;;;;;;;40.13;16.67;;;;;;;-0.22;74.92;101938.59;5059838;28;21660;-83
2022/03/05 05:48:18;;;;;;;47.13;16.67;;;;;;;-0.27;74.06;101930.69;5061254;28;20032;-83
2022/03/05 05:50:44;;;;;;;47.92;15.93;;;;;;;-0.22;74.08;101932.50;5063479;28;20530;-83
2022/03/05 05:53:10;;;;;;;47.75;19.10;;;;;;;-0.30;74.44;101929.72;5059557;28;20354;-83
2022/03/05 05:55:35;;;;;;;45.40;16.83;;;;;;;-0.30;74.21;101928.00;5061201;28;20108;-83
2022/03/05 05:58:01;;;;;;;44.22;16.27;;;;;;;-0.33;74.39;101940.03;5063029;28;20040;-83
2022/03/05 06:00:26;;;;;;;44.85;16.42;;;;;;;-0.34;74.49;101938.31;5060693;28;20055;-83
2022/03/05 06:02:51;;;;;;;52.70;19.70;;;;;;;-0.33;74.32;101937.44;5059776;28;20032;-83
2022/03/05 06:05:17;;;;;;;47.47;16.60;;;;;;;-0.31;73.59;101943.56;5062221;28;20035;-83
2022/03/05 06:07:42;;;;;;;49.42;17.58;;;;;;;-0.39;73.02;101930.41;5061576;28;20036;-83
2022/03/05 06:10:09;;;;;;;46.60;17.35;;;;;;;-0.39;73.01;101935.59;5063659;28;20035;-83
2022/03/05 06:12:34;;;;;;;42.90;16.35;;;;;;;-0.46;73.73;101927.66;5060084;28;20086;-83
2022/03/05 06:15:01;;;;;;;43.25;17.05;;;;;;;-0.45;73.83;101929.41;5061266;28;20032;-83
2022/03/05 06:17:26;;;;;;;43.90;16.55;;;;;;;-0.45;73.75;101929.41;5057480;28;20028;-83
2022/03/05 06:19:52;;;;;;;46.63;18.10;;;;;;;-0.41;74.00;101926.03;5062571;28;20032;-83
2022/03/05 06:22:17;;;;;;;44.58;17.58;;;;;;;-0.38;73.34;101939.06;5061282;28;20037;-83
2022/03/05 06:24:43;;;;;;;48.35;19.17;;;;;;;-0.42;73.72;101935.56;5062949;28;20393;-83
2022/03/05 06:27:09;;;;;;;47.28;19.08;;;;;;;-0.46;72.94;101938.06;5061986;28;20029;-83
2022/03/05 06:29:34;;;;;;;48.65;18.65;;;;;;;-0.41;74.35;101937.31;5062167;28;20032;-83
2022/03/05 06:31:59;;;;;;;45.58;17.98;;;;;;;-0.43;74.03;101927.69;5059995;28;20533;-83
2022/03/05 06:34:27;;;;;;;50.58;20.58;;;;;;;-0.43;73.39;101933.78;5060516;28;20115;-83
2022/03/05 06:36:52;;;;;;;51.40;19.92;;;;;;;-0.40;73.68;101935.56;5061549;28;20113;-83
2022/03/05 06:39:18;;;;;;;55.30;19.65;;;;;;;-0.39;73.05;101939.91;5060942;28;20389;-83
2022/03/05 06:41:43;;;;;;;52.05;19.58;;;;;;;-0.40;73.32;101936.44;5061496;28;20554;-83
2022/03/05 06:44:08;;;;;;;48.47;18.63;;;;;;;-0.38;72.78;101939.06;5061053;28;20039;-83
2022/03/05 06:46:34;;;;;;;46.00;17.67;;;;;;;-0.34;73.02;101944.38;5059923;28;20022;-83
2022/03/05 06:48:59;;;;;;;48.13;18.02;;;;;;;-0.30;73.35;101943.59;5061249;28;20037;-83
2022/03/05 06:51:24;;;;;;;51.65;18.25;;;;;;;-0.24;73.28;101942.84;5060770;28;20663;-82
2022/03/05 06:53:50;;;;;;;42.20;18.27;;;;;;;-0.24;73.33;101937.66;5060699;28;20506;-83
2022/03/05 06:56:15;;;;;;;43.17;16.80;;;;;;;-0.16;72.95;101949.09;5062385;28;20039;-82
2022/03/05 06:58:40;;;;;;;46.35;16.48;;;;;;;-0.12;72.93;101950.06;5060394;28;20031;-82
2022/03/05 07:01:06;;;;;;;45.08;16.65;;;;;;;-0.11;73.07;101944.88;5061432;28;20047;-82
2022/03/05 07:03:31;;;;;;;49.20;17.23;;;;;;;-0.06;73.18;101945.84;5059730;28;20024;-83
2022/03/05 07:05:56;;;;;;;45.45;16.98;;;;;;;0.04;72.85;101956.44;5063175;28;20040;-83
2022/03/05 07:08:22;;;;;;;51.53;17.75;;;;;;;0.07;73.11;101959.09;5059696;28;20032;-83
2022/03/05 07:10:47;;;;;;;48.08;15.65;;;;;;;0.15;73.41;101967.94;5059895;28;20052;-83
2022/03/05 07:13:12;;;;;;;44.35;16.38;;;;;;;0.19;72.87;101972.38;5059616;28;20254;-82
2022/03/05 07:15:38;;;;;;;46.20;16.73;;;;;;;0.17;72.71;101964.53;5059216;28;20032;-83
2022/03/05 07:18:03;;;;;;;49.33;18.92;;;;;;;0.23;72.81;101971.56;5058213;28;20031;-83
2022/03/05 07:20:28;;;;;;;50.75;17.75;;;;;;;0.35;73.48;101979.63;5060075;28;20165;-82
2022/03/05 07:22:54;;;;;;;50.40;17.55;;;;;;;0.36;72.51;101970.09;5060710;28;20027;-83
2022/03/05 07:25:19;;;;;;;41.47;16.10;;;;;;;0.47;73.26;101977.28;5059729;28;20410;-83
2022/03/05 07:27:44;;;;;;;53.58;18.00;;;;;;;0.61;72.74;101984.47;5060803;28;20043;-82
2022/03/05 07:30:10;;;;;;;46.20;17.83;;;;;;;0.60;72.61;101975.75;5060049;28;20553;-82
2022/03/05 07:32:36;;;;;;;51.05;17.73;;;;;;;0.66;72.02;101982.84;5060049;28;20032;-82
2022/03/05 07:35:03;;;;;;;49.80;17.88;;;;;;;0.70;71.95;101974.22;5058364;28;20055;-83
2022/03/05 07:37:29;;;;;;;43.88;15.93;;;;;;;0.79;72.56;101983.91;5059972;28;20209;-82
2022/03/05 07:39:54;;;;;;;47.05;17.13;;;;;;;0.81;71.85;101969.22;5059760;28;20473;-82
2022/03/05 07:42:19;;;;;;;51.55;18.05;;;;;;;0.95;71.92;101984.22;5058120;28;20515;-82
2022/03/05 07:44:45;;;;;;;51.63;19.25;;;;;;;1.05;71.86;101987.00;5057120;28;20066;-82
2022/03/05 07:47:10;;;;;;;55.40;18.33;;;;;;;1.02;71.40;101974.78;5058408;28;20047;-83
2022/03/05 07:49:35;;;;;;;43.58;16.80;;;;;;;1.15;71.10;101989.78;5059147;28;20029;-83
2022/03/05 07:52:01;;;;;;;40.47;15.82;;;;;;;1.15;70.85;101981.97;5062955;28;20028;-83
2022/03/05 07:54:27;;;;;;;50.50;18.67;;;;;;;1.29;71.04;101979.59;5062284;28;20491;-82
2022/03/05 07:56:52;;;;;;;52.72;19.63;;;;;;;1.32;71.23;101979.66;5064846;28;20032;-83
2022/03/05 07:59:18;;;;;;;49.53;18.27;;;;;;;1.45;71.13;101992.03;5064133;28;20063;-82
2022/03/05 08:01:43;;;;;;;52.20;18.00;;;;;;;1.56;70.28;101993.91;5063775;28;20071;-82
2022/03/05 08:04:08;;;;;;;47.95;17.60;;;;;;;1.59;70.58;101980.94;5063675;28;20085;-82
2022/03/05 08:06:34;;;;;;;51.30;18.40;;;;;;;1.63;71.29;101983.63;5061786;28;20484;-83
2022/03/05 08:08:59;;;;;;;52.63;18.45;;;;;;;1.84;70.46;101995.19;5062816;28;20032;-82
2022/03/05 08:11:25;;;;;;;52.33;17.38;;;;;;;2.04;69.74;102002.41;5063079;28;20282;-82
2022/03/05 08:13:51;;;;;;;50.60;16.95;;;;;;;2.38;69.91;102007.19;5063413;28;20031;-82
2022/03/05 08:16:16;;;;;;;45.95;16.85;;;;;;;2.73;68.98;102011.09;5060744;28;20021;-83
2022/03/05 08:18:41;;;;;;;50.15;18.13;;;;;;;2.96;67.68;102013.94;5060940;28;20650;-83
2022/03/05 08:21:07;;;;;;;44.47;17.20;;;;;;;3.21;66.92;102001.97;5064455;28;20056;-83
2022/03/05 08:23:33;;;;;;;47.97;17.33;;;;;;;3.61;66.28;102014.50;5063049;28;20617;-83
2022/03/05 08:25:58;;;;;;;48.60;17.00;;;;;;;3.84;65.46;102007.69;5062854;28;20049;-83
2022/03/05 08:28:23;;;;;;;49.05;17.15;;;;;;;4.15;63.20;102002.63;5062037;28;20312;-83
2022/03/05 08:30:49;;;;;;;45.05;17.75;;;;;;;4.32;63.74;102006.19;5063178;28;20028;-83
2022/03/05 08:33:16;;;;;;;50.38;16.33;;;;;;;4.47;62.39;102011.50;5063313;28;20051;-83
2022/03/05 08:35:42;;;;;;;52.13;17.77;;;;;;;4.76;62.49;102003.75;5062475;28;20237;-83
2022/03/05 08:38:07;;;;;;;43.03;16.98;;;;;;;5.00;60.65;102000.31;5062738;28;20028;-83
2022/03/05 08:40:32;;;;;;;48.70;17.73;;;;;;;5.35;60.66;102004.69;5062650;28;20547;-83
2022/03/05 08:42:58;;;;;;;50.15;18.40;;;;;;;5.69;58.63;101999.41;5061197;28;20063;-84
2022/03/05 08:45:23;;;;;;;43.30;16.58;;;;;;;5.93;57.52;102006.41;5062282;28;20032;-84
2022/03/05 08:47:48;;;;;;;47.92;17.42;;;;;;;6.29;57.06;102005.41;5062134;28;20063;-84
2022/03/05 08:50:15;;;;;;;40.13;16.05;;;;;;;6.80;55.17;102011.31;5061488;28;20037;-83
2022/03/05 08:52:41;;;;;;;40.47;17.20;;;;;;;7.20;54.75;102008.41;5063725;28;20020;-83
2022/03/05 08:55:09;;;;;;;46.30;17.13;;;;;;;7.65;52.43;102013.31;5061879;28;20079;-83
2022/03/05 08:57:35;;;;;;;43.85;17.90;;;;;;;8.37;51.82;102022.22;5062784;28;20036;-84
2022/03/05 09:00:01;;;;;;;46.50;17.27;;;;;;;9.26;50.52;102013.06;5062635;28;20120;-84
2022/03/05 09:02:26;;;;;;;47.65;18.70;;;;;;;10.04;47.18;102003.78;5061386;28;20044;-83
2022/03/05 09:04:52;;;;;;;41.90;16.85;;;;;;;10.70;46.24;102004.19;5060738;28;20024;-84
2022/03/05 09:07:18;;;;;;;48.83;17.38;;;;;;;11.01;43.39;102002.66;5058188;28;20105;-84
2022/03/05 09:09:43;;;;;;;46.55;18.35;;;;;;;11.34;43.77;101993.88;5061325;28;20028;-84
2022/03/05 09:12:09;;;;;;;41.85;18.15;;;;;;;11.90;42.09;101993.34;5061840;28;20047;-84
2022/03/05 09:14:34;;;;;;;40.63;16.73;;;;;;;12.73;40.52;101989.19;5061505;28;20119;-84
2022/03/05 09:16:59;;;;;;;42.88;16.88;;;;;;;13.27;39.66;101994.53;5060385;28;20032;-84
2022/03/05 09:19:25;;;;;;;46.13;17.52;;;;;;;13.37;37.87;102000.41;5062433;28;20028;-84
2022/03/05 09:21:50;;;;;;;37.65;16.15;;;;;;;13.76;37.71;101995.53;5061866;28;20151;-84
2022/03/05 09:24:15;;;;;;;47.47;19.80;;;;;;;13.94;35.06;101995.78;5061228;28;20020;-84
2022/03/05 09:26:41;;;;;;;43.25;18.85;;;;;;;14.25;34.73;102000.88;5061647;28;20036;-84
2022/03/05 09:29:06;;;;;;;40.80;18.73;;;;;;;14.40;36.43;101989.66;5059695;28;20020;-84
2022/03/05 09:31:32;;;;;;;47.90;20.65;;;;;;;15.09;34.68;101988.78;5061441;28;20032;-85
2022/03/05 09:33:57;;;;;;;41.55;18.73;;;;;;;14.87;32.98;101988.78;5061642;28;20032;-85
2022/03/05 09:36:23;;;;;;;40.42;17.73;;;;;;;15.48;33.43;101984.47;5061300;28;20492;-85
2022/03/05 09:38:48;;;;;;;43.03;17.85;;;;;;;16.60;33.55;101987.53;5063352;28;20024;-85
2022/03/05 09:41:13;;;;;;;38.42;18.02;;;;;;;17.37;31.44;101983.81;5060298;28;20377;-85
2022/03/05 09:43:39;;;;;;;38.88;17.50;;;;;;;17.51;30.16;101994.66;5059720;28;20027;-85
2022/03/05 09:46:04;;;;;;;37.85;16.70;;;;;;;17.96;29.55;101982.56;5058620;28;20108;-85
2022/03/05 09:48:30;;;;;;;42.80;18.15;;;;;;;17.89;29.57;101984.69;5060001;28;20043;-85
2022/03/05 09:50:57;;;;;;;41.30;18.42;;;;;;;18.49;29.58;102001.06;5060983;28;20030;-85
2022/03/05 09:53:31;;;;;;;38.53;17.27;;;;;;;18.50;28.65;101989.41;5061309;28;20025;-85
2022/03/05 09:55:56;;;;;;;36.97;17.80;;;;;;;19.27;27.84;101980.59;5062039;28;20036;-85
2022/03/05 09:58:22;;;;;;;38.85;17.83;;;;;;;19.01;25.54;101982.09;5061678;28;20035;-85
2022/03/05 10:00:47;;;;;;;36.88;17.38;;;;;;;19.01;26.43;101986.59;5058023;28;20135;-85
2022/03/05 10:03:14;;;;;;;39.72;17.67;;;;;;;19.82;26.86;101993.44;5059700;28;20071;-85
2022/03/05 10:05:40;;;;;;;38.33;17.65;;;;;;;20.61;24.87;101995.72;5062166;28;20033;-85
2022/03/05 10:08:15;;;;;;;44.42;18.52;;;;;;;20.54;25.63;101989.00;5061255;28;20028;-85
2022/03/05 10:10:40;;;;;;;40.10;19.25;;;;;;;20.49;24.97;101988.41;5060877;28;20103;-85
2022/03/05 10:13:39;;;;;;;40.50;17.80;;;;;;;21.70;27.33;101995.72;5062938;28;20590;-85
2022/03/05 10:16:20;;;;;;;39.45;18.83;;;;;;;21.72;22.95;101983.84;5011056;28;20044;-85
2022/03/05 10:18:46;;;;;;;38.95;18.77;;;;;;;22.22;23.21;101992.09;5055621;28;20025;-85
2022/03/05 10:21:16;;;;;;;37.05;18.55;;;;;;;23.15;23.23;101991.56;5059903;28;20451;-85
2022/03/05 10:23:47;;;;;;;38.03;18.02;;;;;;;23.17;21.87;101983.34;5057470;28;20040;-85
2022/03/05 10:26:14;;;;;;;38.23;18.20;;;;;;;23.30;21.35;101991.38;5058454;28;20127;-85
2022/03/05 10:28:40;;;;;;;32.90;17.58;;;;;;;23.21;22.13;101987.53;5058867;28;20024;-85
2022/03/05 10:31:08;;;;;;;40.65;19.50;;;;;;;23.62;20.85;101987.06;5063623;28;20055;-85
2022/03/05 10:33:41;;;;;;;40.90;19.42;;;;;;;24.11;19.74;101987.84;5074489;28;20063;-85
2022/03/05 10:36:16;;;;;;;36.17;18.52;;;;;;;24.05;19.93;101988.28;5061365;28;20396;-85
2022/03/05 10:38:42;;;;;;;35.15;18.30;;;;;;;23.54;20.75;101991.34;5060115;28;20046;-84
2022/03/05 10:41:07;;;;;;;40.47;19.63;;;;;;;22.85;19.56;101989.28;5061273;28;20218;-85
2022/03/05 10:43:33;;;;;;;36.17;19.17;;;;;;;23.26;21.89;101979.09;5058066;28;20052;-85
2022/03/05 10:45:58;;;;;;;36.58;19.40;;;;;;;24.01;20.33;101976.00;5058552;28;20112;-85
2022/03/05 10:48:28;;;;;;;38.78;19.77;;;;;;;23.98;20.14;101987.06;5057421;28;20021;-85
2022/03/05 10:51:09;;;;;;;36.20;18.88;;;;;;;24.52;19.41;101987.22;5058456;28;20032;-85
2022/03/05 10:53:45;;;;;;;35.75;19.50;;;;;;;24.61;19.75;101983.78;5057945;28;20027;-85
2022/03/05 10:56:20;;;;;;;34.30;17.35;;;;;;;24.23;20.67;101984.13;5057178;28;20029;-85
2022/03/05 10:59:09;;;;;;;35.83;19.77;;;;;;;24.65;20.63;101987.94;5059474;28;20024;-85
2022/03/05 11:01:37;;;;;;;34.95;19.30;;;;;;;25.04;19.22;101998.31;5059850;28;20036;-85
2022/03/05 11:04:04;;;;;;;35.03;19.70;;;;;;;25.16;18.85;101994.63;5060877;28;20024;-85
2022/03/05 11:06:29;;;;;;;34.22;19.27;;;;;;;25.50;18.03;101984.50;5060607;28;20542;-85
2022/03/05 11:08:56;;;;;;;34.92;19.92;;;;;;;26.07;18.49;101993.19;5059502;28;20025;-85
2022/03/05 11:11:22;;;;;;;40.63;21.45;;;;;;;23.69;17.51;101992.91;5058270;28;20060;-85
2022/03/05 11:13:47;;;;;;;37.53;21.10;;;;;;;23.36;20.16;101986.41;5058933;28;20069;-85